sensor_id;sensor_type;location;lat;lon;timestamp;pressure;altitude;pressure_sealevel;temperature;humidity
50977;BME280;36992;48.200;12.418;2023-05-01T00:02:21;96631.13;;;15.82;40.00
50977;BME280;36992;48.200;12.418;2023-05-01T00:04:47;96619.00;;;15.79;40.43
50977;BME280;36992;48.200;12.418;2023-05-01T00:07:13;96620.47;;;15.76;41.32
50977;BME280;36992;48.200;12.418;2023-05-01T00:09:41;96627.34;;;15.74;40.50
50977;BME280;36992;48.200;12.418;2023-05-01T00:12:09;96620.19;;;15.69;41.02
50977;BME280;36992;48.200;12.418;2023-05-01T00:14:36;96625.81;;;15.64;41.67
50977;BME280;36992;48.200;12.418;2023-05-01T00:17:02;96623.75;;;15.61;40.90
50977;BME280;36992;48.200;12.418;2023-05-01T00:19:29;96622.78;;;15.57;41.00
50977;BME280;36992;48.200;12.418;2023-05-01T00:21:55;96623.47;;;15.54;41.02
50977;BME280;36992;48.200;12.418;2023-05-01T00:24:22;96615.97;;;15.50;40.73
50977;BME280;36992;48.200;12.418;2023-05-01T00:26:50;96607.34;;;15.48;40.96
50977;BME280;36992;48.200;12.418;2023-05-01T00:29:16;96608.03;;;15.45;41.68
50977;BME280;36992;48.200;12.418;2023-05-01T00:31:43;96603.22;;;15.42;41.36
50977;BME280;36992;48.200;12.418;2023-05-01T00:34:09;96601.63;;;15.41;41.79
50977;BME280;36992;48.200;12.418;2023-05-01T00:36:36;96595.75;;;15.39;42.39
50977;BME280;36992;48.200;12.418;2023-05-01T00:39:03;96598.78;;;15.37;41.96
50977;BME280;36992;48.200;12.418;2023-05-01T00:41:30;96599.91;;;15.36;42.17
50977;BME280;36992;48.200;12.418;2023-05-01T00:43:59;96596.53;;;15.40;41.34
50977;BME280;36992;48.200;12.418;2023-05-01T00:46:29;96590.97;;;15.36;41.78
50977;BME280;36992;48.200;12.418;2023-05-01T00:48:56;96592.09;;;15.35;42.00
50977;BME280;36992;48.200;12.418;2023-05-01T00:51:23;96587.78;;;15.34;41.59
50977;BME280;36992;48.200;12.418;2023-05-01T00:53:51;96593.22;;;15.34;41.98
50977;BME280;36992;48.200;12.418;2023-05-01T00:56:18;96589.22;;;15.31;41.15
50977;BME280;36992;48.200;12.418;2023-05-01T00:58:49;96583.50;;;15.33;41.77
50977;BME280;36992;48.200;12.418;2023-05-01T01:01:18;96585.25;;;15.29;41.97
50977;BME280;36992;48.200;12.418;2023-05-01T01:03:45;96589.72;;;15.24;42.71
50977;BME280;36992;48.200;12.418;2023-05-01T01:06:15;96579.69;;;15.25;41.27
50977;BME280;36992;48.200;12.418;2023-05-01T01:08:59;96580.00;;;15.23;41.86
50977;BME280;36992;48.200;12.418;2023-05-01T01:11:37;96570.91;;;15.19;41.89
50977;BME280;36992;48.200;12.418;2023-05-01T01:14:10;96571.13;;;15.14;42.48
50977;BME280;36992;48.200;12.418;2023-05-01T01:16:44;96576.06;;;15.12;42.32
50977;BME280;36992;48.200;12.418;2023-05-01T01:19:30;96574.47;;;15.11;41.84
50977;BME280;36992;48.200;12.418;2023-05-01T01:22:08;96576.22;;;15.07;41.81
50977;BME280;36992;48.200;12.418;2023-05-01T01:24:52;96559.94;;;15.07;41.76
50977;BME280;36992;48.200;12.418;2023-05-01T01:27:52;96558.38;;;15.06;42.28
50977;BME280;36992;48.200;12.418;2023-05-01T01:30:39;96556.63;;;15.01;42.17
50977;BME280;36992;48.200;12.418;2023-05-01T01:33:48;96547.69;;;15.01;42.47
50977;BME280;36992;48.200;12.418;2023-05-01T01:36:19;96553.63;;;14.94;42.59
50977;BME280;36992;48.200;12.418;2023-05-01T01:38:56;96545.50;;;14.94;42.58
50977;BME280;36992;48.200;12.418;2023-05-01T01:41:29;96541.97;;;14.93;42.38
50977;BME280;36992;48.200;12.418;2023-05-01T01:43:59;96548.06;;;14.90;42.55
50977;BME280;36992;48.200;12.418;2023-05-01T01:46:29;96536.41;;;14.90;42.80
50977;BME280;36992;48.200;12.418;2023-05-01T01:49:05;96537.22;;;14.90;42.45
50977;BME280;36992;48.200;12.418;2023-05-01T01:51:33;96537.84;;;14.87;43.66
50977;BME280;36992;48.200;12.418;2023-05-01T01:54:01;96538.97;;;14.86;43.40
50977;BME280;36992;48.200;12.418;2023-05-01T01:56:30;96531.97;;;14.85;43.31
50977;BME280;36992;48.200;12.418;2023-05-01T01:59:00;96525.41;;;14.86;43.53
50977;BME280;36992;48.200;12.418;2023-05-01T02:01:28;96526.53;;;14.85;43.44
50977;BME280;36992;48.200;12.418;2023-05-01T02:03:55;96520.66;;;14.83;43.40
50977;BME280;36992;48.200;12.418;2023-05-01T02:06:24;96511.72;;;14.82;43.20
50977;BME280;36992;48.200;12.418;2023-05-01T02:08:52;96516.53;;;14.77;42.82
50977;BME280;36992;48.200;12.418;2023-05-01T02:11:20;96514.59;;;14.77;43.08
50977;BME280;36992;48.200;12.418;2023-05-01T02:13:48;96517.13;;;14.74;42.68
50977;BME280;36992;48.200;12.418;2023-05-01T02:16:16;96522.41;;;14.70;42.97
50977;BME280;36992;48.200;12.418;2023-05-01T02:18:45;96516.03;;;14.66;42.79
50977;BME280;36992;48.200;12.418;2023-05-01T02:21:12;96513.19;;;14.62;42.83
50977;BME280;36992;48.200;12.418;2023-05-01T02:23:41;96508.88;;;14.61;43.78
50977;BME280;36992;48.200;12.418;2023-05-01T02:26:12;96514.31;;;14.61;43.00
50977;BME280;36992;48.200;12.418;2023-05-01T02:28:41;96507.47;;;14.55;43.68
50977;BME280;36992;48.200;12.418;2023-05-01T02:31:08;96504.28;;;14.53;43.50
50977;BME280;36992;48.200;12.418;2023-05-01T02:33:35;96497.59;;;14.50;43.14
50977;BME280;36992;48.200;12.418;2023-05-01T02:36:01;96502.19;;;14.50;43.21
50977;BME280;36992;48.200;12.418;2023-05-01T02:38:29;96504.44;;;14.48;43.77
50977;BME280;36992;48.200;12.418;2023-05-01T02:40:59;96498.38;;;14.51;43.10
50977;BME280;36992;48.200;12.418;2023-05-01T02:43:27;96506.34;;;14.47;43.15
50977;BME280;36992;48.200;12.418;2023-05-01T02:45:57;96497.44;;;14.47;44.13
50977;BME280;36992;48.200;12.418;2023-05-01T02:48:27;96496.31;;;14.48;43.65
50977;BME280;36992;48.200;12.418;2023-05-01T02:50:55;96494.72;;;14.47;43.33
50977;BME280;36992;48.200;12.418;2023-05-01T02:53:22;96491.88;;;14.43;43.44
50977;BME280;36992;48.200;12.418;2023-05-01T02:55:50;96494.91;;;14.41;44.33
50977;BME280;36992;48.200;12.418;2023-05-01T02:58:18;96491.06;;;14.42;43.51
50977;BME280;36992;48.200;12.418;2023-05-01T03:00:45;96496.66;;;14.37;43.90
50977;BME280;36992;48.200;12.418;2023-05-01T03:03:13;96491.59;;;14.36;44.48
50977;BME280;36992;48.200;12.418;2023-05-01T03:05:41;96485.34;;;14.35;43.98
50977;BME280;36992;48.200;12.418;2023-05-01T03:08:07;96483.75;;;14.34;44.47
50977;BME280;36992;48.200;12.418;2023-05-01T03:10:34;96483.75;;;14.34;43.72
50977;BME280;36992;48.200;12.418;2023-05-01T03:13:00;96487.59;;;14.33;43.75
50977;BME280;36992;48.200;12.418;2023-05-01T03:15:29;96472.94;;;14.34;43.79
50977;BME280;36992;48.200;12.418;2023-05-01T03:17:55;96468.13;;;14.31;43.78
50977;BME280;36992;48.200;12.418;2023-05-01T03:20:22;96461.13;;;14.30;44.20
50977;BME280;36992;48.200;12.418;2023-05-01T03:22:48;96457.97;;;14.28;44.12
50977;BME280;36992;48.200;12.418;2023-05-01T03:25:15;96459.84;;;14.27;44.12
50977;BME280;36992;48.200;12.418;2023-05-01T03:27:42;96461.78;;;14.27;44.23
50977;BME280;36992;48.200;12.418;2023-05-01T03:30:09;96462.88;;;14.26;44.45
50977;BME280;36992;48.200;12.418;2023-05-01T03:32:37;96467.22;;;14.27;43.75
50977;BME280;36992;48.200;12.418;2023-05-01T03:35:04;96463.22;;;14.24;44.62
50977;BME280;36992;48.200;12.418;2023-05-01T03:37:31;96456.22;;;14.23;44.53
50977;BME280;36992;48.200;12.418;2023-05-01T03:39:58;96455.72;;;14.21;44.46
50977;BME280;36992;48.200;12.418;2023-05-01T03:42:24;96454.47;;;14.19;43.95
50977;BME280;36992;48.200;12.418;2023-05-01T03:44:51;96454.47;;;14.19;43.78
50977;BME280;36992;48.200;12.418;2023-05-01T03:47:17;96456.69;;;14.16;43.92
50977;BME280;36992;48.200;12.418;2023-05-01T03:49:45;96456.69;;;14.16;44.30
50977;BME280;36992;48.200;12.418;2023-05-01T03:52:12;96457.34;;;14.13;44.50
50977;BME280;36992;48.200;12.418;2023-05-01T03:54:39;96460.03;;;14.13;44.19
50977;BME280;36992;48.200;12.418;2023-05-01T03:57:05;96455.75;;;14.12;44.18
50977;BME280;36992;48.200;12.418;2023-05-01T03:59:32;96451.44;;;14.11;44.14
50977;BME280;36992;48.200;12.418;2023-05-01T04:01:59;96456.41;;;14.09;44.65
50977;BME280;36992;48.200;12.418;2023-05-01T04:04:26;96452.09;;;14.08;44.57
50977;BME280;36992;48.200;12.418;2023-05-01T04:06:54;96458.81;;;14.11;44.79
50977;BME280;36992;48.200;12.418;2023-05-01T04:09:21;96454.81;;;14.08;44.82
50977;BME280;36992;48.200;12.418;2023-05-01T04:11:47;96459.09;;;14.09;45.18
50977;BME280;36992;48.200;12.418;2023-05-01T04:14:14;96459.09;;;14.09;44.96
50977;BME280;36992;48.200;12.418;2023-05-01T04:16:40;96471.53;;;14.10;45.19
50977;BME280;36992;48.200;12.418;2023-05-01T04:19:07;96466.13;;;14.10;44.88
50977;BME280;36992;48.200;12.418;2023-05-01T04:21:34;96465.81;;;14.12;44.91
50977;BME280;36992;48.200;12.418;2023-05-01T04:24:02;96470.88;;;14.13;44.69
50977;BME280;36992;48.200;12.418;2023-05-01T04:26:29;96465.00;;;14.11;44.87
50977;BME280;36992;48.200;12.418;2023-05-01T04:28:55;96460.69;;;14.10;44.68
50977;BME280;36992;48.200;12.418;2023-05-01T04:31:22;96457.19;;;14.10;45.06
50977;BME280;36992;48.200;12.418;2023-05-01T04:33:48;96461.00;;;14.09;44.58
50977;BME280;36992;48.200;12.418;2023-05-01T04:36:15;96460.22;;;14.08;44.84
50977;BME280;36992;48.200;12.418;2023-05-01T04:38:41;96461.31;;;14.07;44.93
50977;BME280;36992;48.200;12.418;2023-05-01T04:41:09;96464.84;;;14.08;44.81
50977;BME280;36992;48.200;12.418;2023-05-01T04:43:36;96460.84;;;14.05;45.16
50977;BME280;36992;48.200;12.418;2023-05-01T04:46:03;96460.84;;;14.05;45.03
50977;BME280;36992;48.200;12.418;2023-05-01T04:48:29;96465.16;;;14.06;45.08
50977;BME280;36992;48.200;12.418;2023-05-01T04:50:56;96463.09;;;14.03;45.18
50977;BME280;36992;48.200;12.418;2023-05-01T04:53:22;96470.91;;;14.05;45.35
50977;BME280;36992;48.200;12.418;2023-05-01T04:55:49;96463.88;;;14.03;45.50
50977;BME280;36992;48.200;12.418;2023-05-01T04:58:17;96468.66;;;14.07;45.29
50977;BME280;36992;48.200;12.418;2023-05-01T05:00:43;96474.41;;;14.05;45.31
50977;BME280;36992;48.200;12.418;2023-05-01T05:03:10;96468.97;;;14.05;45.43
50977;BME280;36992;48.200;12.418;2023-05-01T05:05:36;96473.28;;;14.06;45.35
50977;BME280;36992;48.200;12.418;2023-05-01T05:08:03;96468.66;;;14.07;45.18
50977;BME280;36992;48.200;12.418;2023-05-01T05:10:30;96476.47;;;14.08;45.31
50977;BME280;36992;48.200;12.418;2023-05-01T05:12:57;96475.69;;;14.08;45.53
50977;BME280;36992;48.200;12.418;2023-05-01T05:15:25;96471.53;;;14.10;45.38
50977;BME280;36992;48.200;12.418;2023-05-01T05:17:51;96475.34;;;14.09;45.43
50977;BME280;36992;48.200;12.418;2023-05-01T05:20:18;96476.13;;;14.10;45.44
50977;BME280;36992;48.200;12.418;2023-05-01T05:22:44;96481.25;;;14.11;44.97
50977;BME280;36992;48.200;12.418;2023-05-01T05:25:11;96479.34;;;14.12;45.47
50977;BME280;36992;48.200;12.418;2023-05-01T05:27:37;96477.41;;;14.12;45.16
50977;BME280;36992;48.200;12.418;2023-05-01T05:30:04;96479.81;;;14.14;45.23
50977;BME280;36992;48.200;12.418;2023-05-01T05:32:32;96483.78;;;14.16;45.02
50977;BME280;36992;48.200;12.418;2023-05-01T05:34:59;96485.69;;;14.16;45.34
50977;BME280;36992;48.200;12.418;2023-05-01T05:37:25;96475.66;;;14.16;45.29
50977;BME280;36992;48.200;12.418;2023-05-01T05:39:52;96479.97;;;14.18;45.21
50977;BME280;36992;48.200;12.418;2023-05-01T05:42:18;96479.97;;;14.18;45.08
50977;BME280;36992;48.200;12.418;2023-05-01T05:44:45;96482.66;;;14.18;45.28
50977;BME280;36992;48.200;12.418;2023-05-01T05:47:12;96474.53;;;14.18;45.37
50977;BME280;36992;48.200;12.418;2023-05-01T05:49:40;96476.63;;;14.21;45.18
50977;BME280;36992;48.200;12.418;2023-05-01T05:52:06;96476.94;;;14.19;45.26
50977;BME280;36992;48.200;12.418;2023-05-01T05:54:33;96474.53;;;14.18;45.15
50977;BME280;36992;48.200;12.418;2023-05-01T05:56:59;96467.53;;;14.16;45.24
50977;BME280;36992;48.200;12.418;2023-05-01T05:59:26;96474.53;;;14.18;45.59
50977;BME280;36992;48.200;12.418;2023-05-01T06:01:53;96475.97;;;14.15;45.83
50977;BME280;36992;48.200;12.418;2023-05-01T06:04:19;96473.28;;;14.15;45.32
50977;BME280;36992;48.200;12.418;2023-05-01T06:06:47;96476.47;;;14.17;45.73
50977;BME280;36992;48.200;12.418;2023-05-01T06:09:14;96476.78;;;14.15;45.78
50977;BME280;36992;48.200;12.418;2023-05-01T06:11:44;96482.19;;;14.15;45.66
50977;BME280;36992;48.200;12.418;2023-05-01T06:14:10;96475.66;;;14.16;45.57
50977;BME280;36992;48.200;12.418;2023-05-01T06:16:37;96468.66;;;14.15;45.05
50977;BME280;36992;48.200;12.418;2023-05-01T06:19:03;96471.38;;;14.15;45.39
50977;BME280;36992;48.200;12.418;2023-05-01T06:21:30;96471.38;;;14.15;45.92
50977;BME280;36992;48.200;12.418;2023-05-01T06:23:58;96471.06;;;14.17;45.12
50977;BME280;36992;48.200;12.418;2023-05-01T06:26:24;96472.97;;;14.16;45.64
50977;BME280;36992;48.200;12.418;2023-05-01T06:28:52;96469.13;;;14.18;45.64
50977;BME280;36992;48.200;12.418;2023-05-01T06:31:19;96472.66;;;14.18;45.56
50977;BME280;36992;48.200;12.418;2023-05-01T06:33:45;96475.00;;;14.20;45.62
50977;BME280;36992;48.200;12.418;2023-05-01T06:36:12;96470.53;;;14.24;45.35
50977;BME280;36992;48.200;12.418;2023-05-01T06:38:38;96466.41;;;14.26;45.61
50977;BME280;36992;48.200;12.418;2023-05-01T06:41:07;96459.53;;;14.29;45.67
50977;BME280;36992;48.200;12.418;2023-05-01T06:43:34;96466.56;;;14.30;45.58
50977;BME280;36992;48.200;12.418;2023-05-01T06:46:00;96464.31;;;14.32;45.28
50977;BME280;36992;48.200;12.418;2023-05-01T06:48:27;96469.09;;;14.35;45.38
50977;BME280;36992;48.200;12.418;2023-05-01T06:50:54;96471.16;;;14.38;45.58
50977;BME280;36992;48.200;12.418;2023-05-01T06:53:21;96464.78;;;14.43;45.28
50977;BME280;36992;48.200;12.418;2023-05-01T06:55:47;96461.41;;;14.46;45.18
50977;BME280;36992;48.200;12.418;2023-05-01T06:58:15;96468.25;;;14.52;45.13
50977;BME280;36992;48.200;12.418;2023-05-01T07:00:41;96473.34;;;14.54;45.37
50977;BME280;36992;48.200;12.418;2023-05-01T07:03:08;96465.03;;;14.59;45.22
50977;BME280;36992;48.200;12.418;2023-05-01T07:05:34;96461.66;;;14.62;45.00
50977;BME280;36992;48.200;12.418;2023-05-01T07:08:01;96468.03;;;14.66;45.45
50977;BME280;36992;48.200;12.418;2023-05-01T07:10:27;96453.03;;;14.69;45.17
50977;BME280;36992;48.200;12.418;2023-05-01T07:12:54;96468.31;;;14.74;45.19
50977;BME280;36992;48.200;12.418;2023-05-01T07:15:22;96466.25;;;14.79;44.69
50977;BME280;36992;48.200;12.418;2023-05-01T07:17:49;96467.53;;;14.82;45.15
50977;BME280;36992;48.200;12.418;2023-05-01T07:20:16;96460.66;;;14.84;44.75
50977;BME280;36992;48.200;12.418;2023-05-01T07:22:43;96462.72;;;14.88;44.81
50977;BME280;36992;48.200;12.418;2023-05-01T07:25:09;96467.16;;;14.92;44.98
50977;BME280;36992;48.200;12.418;2023-05-01T07:27:36;96462.19;;;14.94;45.00
50977;BME280;36992;48.200;12.418;2023-05-01T07:30:03;96457.25;;;14.96;44.85
50977;BME280;36992;48.200;12.418;2023-05-01T07:32:31;96457.84;;;15.02;44.51
50977;BME280;36992;48.200;12.418;2023-05-01T07:34:58;96452.88;;;15.04;44.63
50977;BME280;36992;48.200;12.418;2023-05-01T07:37:24;96456.56;;;15.08;45.04
50977;BME280;36992;48.200;12.418;2023-05-01T07:39:51;96460.53;;;15.11;44.39
50977;BME280;36992;48.200;12.418;2023-05-01T07:42:18;96453.66;;;15.14;44.46
50977;BME280;36992;48.200;12.418;2023-05-01T07:44:44;96457.63;;;15.16;45.22
50977;BME280;36992;48.200;12.418;2023-05-01T07:47:11;96456.97;;;15.19;44.45
50977;BME280;36992;48.200;12.418;2023-05-01T07:49:39;96462.19;;;15.24;44.98
50977;BME280;36992;48.200;12.418;2023-05-01T07:52:05;96461.06;;;15.26;44.69
50977;BME280;36992;48.200;12.418;2023-05-01T07:54:32;96456.59;;;15.30;44.64
50977;BME280;36992;48.200;12.418;2023-05-01T07:56:59;96459.44;;;15.33;44.64
50977;BME280;36992;48.200;12.418;2023-05-01T07:59:26;96454.13;;;15.37;44.19
50977;BME280;36992;48.200;12.418;2023-05-01T08:01:52;96462.41;;;15.41;44.73
50977;BME280;36992;48.200;12.418;2023-05-01T08:04:19;96455.53;;;15.43;44.48
50977;BME280;36992;48.200;12.418;2023-05-01T08:06:48;96456.16;;;15.49;44.66
50977;BME280;36992;48.200;12.418;2023-05-01T08:09:15;96459.31;;;15.51;45.12
50977;BME280;36992;48.200;12.418;2023-05-01T08:11:41;96461.03;;;15.56;44.15
50977;BME280;36992;48.200;12.418;2023-05-01T08:14:08;96465.00;;;15.58;44.24
50977;BME280;36992;48.200;12.418;2023-05-01T08:16:34;96458.94;;;15.61;43.93
50977;BME280;36992;48.200;12.418;2023-05-01T08:19:01;96459.38;;;15.63;45.32
50977;BME280;36992;48.200;12.418;2023-05-01T08:21:28;96458.72;;;15.67;44.59
50977;BME280;36992;48.200;12.418;2023-05-01T08:23:56;96457.75;;;15.71;44.63
50977;BME280;36992;48.200;12.418;2023-05-01T08:26:23;96464.44;;;15.74;44.90
50977;BME280;36992;48.200;12.418;2023-05-01T08:28:49;96451.44;;;15.80;43.87
50977;BME280;36992;48.200;12.418;2023-05-01T08:31:16;96456.88;;;15.80;45.34
50977;BME280;36992;48.200;12.418;2023-05-01T08:33:43;96460.84;;;15.82;45.45
50977;BME280;36992;48.200;12.418;2023-05-01T08:36:10;96465.25;;;15.87;45.06
50977;BME280;36992;48.200;12.418;2023-05-01T08:38:36;96458.06;;;15.91;44.61
50977;BME280;36992;48.200;12.418;2023-05-01T08:41:04;96457.88;;;15.96;44.50
50977;BME280;36992;48.200;12.418;2023-05-01T08:43:31;96459.00;;;15.95;44.27
50977;BME280;36992;48.200;12.418;2023-05-01T08:45:58;96450.50;;;15.97;44.61
50977;BME280;36992;48.200;12.418;2023-05-01T08:48:26;96461.50;;;16.00;44.19
50977;BME280;36992;48.200;12.418;2023-05-01T08:50:54;96456.88;;;16.01;44.84
50977;BME280;36992;48.200;12.418;2023-05-01T08:53:24;96457.00;;;16.04;44.88
50977;BME280;36992;48.200;12.418;2023-05-01T08:55:51;96460.97;;;16.07;45.16
50977;BME280;36992;48.200;12.418;2023-05-01T08:58:23;96462.03;;;16.15;45.06
50977;BME280;36992;48.200;12.418;2023-05-01T09:00:51;96461.34;;;16.18;44.90
50977;BME280;36992;48.200;12.418;2023-05-01T09:03:21;96460.69;;;16.21;44.51
50977;BME280;36992;48.200;12.418;2023-05-01T09:05:47;96461.59;;;16.25;44.65
50977;BME280;36992;48.200;12.418;2023-05-01T09:08:14;96455.16;;;16.30;45.25
50977;BME280;36992;48.200;12.418;2023-05-01T09:10:44;96467.53;;;16.40;44.63
50977;BME280;36992;48.200;12.418;2023-05-01T09:13:12;96459.81;;;16.42;44.85
50977;BME280;36992;48.200;12.418;2023-05-01T09:15:39;96460.88;;;16.50;44.68
50977;BME280;36992;48.200;12.418;2023-05-01T09:18:07;96461.75;;;16.54;44.41
50977;BME280;36992;48.200;12.418;2023-05-01T09:20:35;96462.34;;;16.59;43.65
50977;BME280;36992;48.200;12.418;2023-05-01T09:23:02;96458.94;;;16.63;44.02
50977;BME280;36992;48.200;12.418;2023-05-01T09:25:29;96462.91;;;16.65;43.55
50977;BME280;36992;48.200;12.418;2023-05-01T09:27:56;96464.28;;;16.71;44.24
50977;BME280;36992;48.200;12.418;2023-05-01T09:30:29;96465.75;;;16.81;43.71
50977;BME280;36992;48.200;12.418;2023-05-01T09:33:07;96459.31;;;16.86;43.85
50977;BME280;36992;48.200;12.418;2023-05-01T09:35:48;96456.03;;;16.93;43.55
50977;BME280;36992;48.200;12.418;2023-05-01T09:38:20;96461.25;;;16.98;43.45
50977;BME280;36992;48.200;12.418;2023-05-01T09:40:47;96460.53;;;17.01;44.08
50977;BME280;36992;48.200;12.418;2023-05-01T09:43:23;96453.53;;;17.12;43.71
50977;BME280;36992;48.200;12.418;2023-05-01T09:45:58;96455.38;;;17.21;43.44
50977;BME280;36992;48.200;12.418;2023-05-01T09:48:26;96457.84;;;17.26;43.65
50977;BME280;36992;48.200;12.418;2023-05-01T09:50:53;96451.81;;;17.33;42.88
50977;BME280;36992;48.200;12.418;2023-05-01T09:53:32;96457.25;;;17.45;43.21
50977;BME280;36992;48.200;12.418;2023-05-01T09:56:02;96462.81;;;17.49;43.36
50977;BME280;36992;48.200;12.418;2023-05-01T09:58:28;96454.41;;;17.54;43.09
50977;BME280;36992;48.200;12.418;2023-05-01T10:00:55;96457.31;;;17.61;43.27
50977;BME280;36992;48.200;12.418;2023-05-01T10:03:21;96461.41;;;17.67;42.85
50977;BME280;36992;48.200;12.418;2023-05-01T10:05:49;96463.97;;;17.76;43.00
50977;BME280;36992;48.200;12.418;2023-05-01T10:08:16;96451.59;;;17.79;42.74
50977;BME280;36992;48.200;12.418;2023-05-01T10:10:42;96455.66;;;17.85;42.59
50977;BME280;36992;48.200;12.418;2023-05-01T10:13:14;96443.81;;;17.93;43.05
50977;BME280;36992;48.200;12.418;2023-05-01T10:15:40;96448.13;;;17.94;42.99
50977;BME280;36992;48.200;12.418;2023-05-01T10:18:09;96453.81;;;18.02;42.04
50977;BME280;36992;48.200;12.418;2023-05-01T10:20:36;96449.94;;;18.03;41.72
50977;BME280;36992;48.200;12.418;2023-05-01T10:23:03;96453.09;;;18.05;42.49
50977;BME280;36992;48.200;12.418;2023-05-01T10:25:30;96452.28;;;18.04;42.79
50977;BME280;36992;48.200;12.418;2023-05-01T10:27:58;96445.75;;;18.05;43.20
50977;BME280;36992;48.200;12.418;2023-05-01T10:30:25;96448.56;;;18.09;42.76
50977;BME280;36992;48.200;12.418;2023-05-01T10:32:52;96444.00;;;18.13;41.62
50977;BME280;36992;48.200;12.418;2023-05-01T10:35:20;96446.03;;;18.16;42.37
50977;BME280;36992;48.200;12.418;2023-05-01T10:37:57;96448.94;;;18.24;42.04
50977;BME280;36992;48.200;12.418;2023-05-01T10:40:46;96454.94;;;18.29;42.12
50977;BME280;36992;48.200;12.418;2023-05-01T10:43:20;96454.94;;;18.29;41.92
50977;BME280;36992;48.200;12.418;2023-05-01T10:45:50;96444.81;;;18.30;42.78
50977;BME280;36992;48.200;12.418;2023-05-01T10:48:51;96437.72;;;18.41;42.34
50977;BME280;36992;48.200;12.418;2023-05-01T10:51:19;96440.78;;;18.40;41.93
50977;BME280;36992;48.200;12.418;2023-05-01T10:53:47;96441.22;;;18.42;43.08
50977;BME280;36992;48.200;12.418;2023-05-01T10:56:41;96440.38;;;18.54;42.22
50977;BME280;36992;48.200;12.418;2023-05-01T10:59:10;96440.28;;;18.66;42.13
50977;BME280;36992;48.200;12.418;2023-05-01T11:01:37;96446.25;;;18.56;42.45
50977;BME280;36992;48.200;12.418;2023-05-01T11:04:06;96441.94;;;18.55;42.00
50977;BME280;36992;48.200;12.418;2023-05-01T11:06:34;96434.91;;;18.54;42.13
50977;BME280;36992;48.200;12.418;2023-05-01T11:09:37;96429.63;;;18.61;42.10
50977;BME280;36992;48.200;12.418;2023-05-01T11:12:06;96434.19;;;18.57;42.46
50977;BME280;36992;48.200;12.418;2023-05-01T11:15:02;96426.47;;;18.59;42.33
50977;BME280;36992;48.200;12.418;2023-05-01T11:17:46;96435.44;;;18.59;42.67
50977;BME280;36992;48.200;12.418;2023-05-01T11:23:17;96445.81;;;18.54;42.60
50977;BME280;36992;48.200;12.418;2023-05-01T11:25:44;96435.69;;;18.54;42.93
50977;BME280;36992;48.200;12.418;2023-05-01T11:28:20;96435.81;;;18.58;42.44
50977;BME280;36992;48.200;12.418;2023-05-01T11:30:47;96439.56;;;18.53;42.38
50977;BME280;36992;48.200;12.418;2023-05-01T11:33:21;96438.53;;;18.58;42.21
50977;BME280;36992;48.200;12.418;2023-05-01T11:35:56;96437.38;;;18.59;42.55
50977;BME280;36992;48.200;12.418;2023-05-01T11:38:23;96435.34;;;18.56;42.32
50977;BME280;36992;48.200;12.418;2023-05-01T11:40:53;96428.81;;;18.60;42.20
50977;BME280;36992;48.200;12.418;2023-05-01T11:43:22;96431.56;;;18.60;42.23
50977;BME280;36992;48.200;12.418;2023-05-01T11:45:51;96420.31;;;18.62;42.13
50977;BME280;36992;48.200;12.418;2023-05-01T11:48:19;96424.19;;;18.61;41.98
50977;BME280;36992;48.200;12.418;2023-05-01T11:50:46;96421.09;;;18.63;41.66
50977;BME280;36992;48.200;12.418;2023-05-01T11:53:13;96428.06;;;18.60;41.35
50977;BME280;36992;48.200;12.418;2023-05-01T11:55:41;96432.63;;;18.56;41.71
50977;BME280;36992;48.200;12.418;2023-05-01T11:58:08;96435.59;;;18.51;42.50
50977;BME280;36992;48.200;12.418;2023-05-01T12:00:38;96433.69;;;18.51;42.51
50977;BME280;36992;48.200;12.418;2023-05-01T12:03:06;96437.09;;;18.48;41.99
50977;BME280;36992;48.200;12.418;2023-05-01T12:05:33;96442.53;;;18.48;42.38
50977;BME280;36992;48.200;12.418;2023-05-01T12:08:12;96448.56;;;18.54;42.36
50977;BME280;36992;48.200;12.418;2023-05-01T12:10:41;96448.81;;;18.49;42.16
50977;BME280;36992;48.200;12.418;2023-05-01T12:13:09;96441.78;;;18.47;41.92
50977;BME280;36992;48.200;12.418;2023-05-01T12:15:40;96441.06;;;18.51;42.82
50977;BME280;36992;48.200;12.418;2023-05-01T12:18:07;96438.31;;;18.51;42.00
50977;BME280;36992;48.200;12.418;2023-05-01T12:20:39;96436.50;;;18.55;42.45
50977;BME280;36992;48.200;12.418;2023-05-01T12:23:07;96431.38;;;18.53;42.61
50977;BME280;36992;48.200;12.418;2023-05-01T12:25:35;96433.75;;;18.55;42.05
50977;BME280;36992;48.200;12.418;2023-05-01T12:28:02;96420.56;;;18.57;42.10
50977;BME280;36992;48.200;12.418;2023-05-01T12:30:34;96419.44;;;18.58;42.10
50977;BME280;36992;48.200;12.418;2023-05-01T12:33:07;96426.91;;;18.61;41.98
50977;BME280;36992;48.200;12.418;2023-05-01T12:35:34;96441.25;;;18.58;42.54
50977;BME280;36992;48.200;12.418;2023-05-01T12:38:09;96442.56;;;18.64;42.22
50977;BME280;36992;48.200;12.418;2023-05-01T12:40:37;96441.69;;;18.60;42.15
50977;BME280;36992;48.200;12.418;2023-05-01T12:43:04;96442.03;;;18.58;42.37
50977;BME280;36992;48.200;12.418;2023-05-01T12:45:37;96441.34;;;18.62;42.57
50977;BME280;36992;48.200;12.418;2023-05-01T12:48:11;96432.00;;;18.63;42.23
50977;BME280;36992;48.200;12.418;2023-05-01T12:50:39;96423.75;;;18.59;42.81
50977;BME280;36992;48.200;12.418;2023-05-01T12:53:05;96427.63;;;18.58;42.34
50977;BME280;36992;48.200;12.418;2023-05-01T12:55:42;96428.13;;;18.64;42.63
50977;BME280;36992;48.200;12.418;2023-05-01T12:58:09;96419.44;;;18.58;42.26
50977;BME280;36992;48.200;12.418;2023-05-01T13:00:44;96425.50;;;18.67;42.45
50977;BME280;36992;48.200;12.418;2023-05-01T13:03:13;96426.66;;;18.66;42.19